createdAt,value
2022-08-22T00:00:18.505Z,12.40
2022-08-22T00:03:01.247Z,10.40
2022-08-22T00:03:04.819Z,9.90
2022-08-22T00:06:26.448Z,11.60
2022-08-22T00:09:30.254Z,12.70
2022-08-22T00:12:29.959Z,12.20
2022-08-22T00:15:41.872Z,13.30
2022-08-22T00:18:44.235Z,12.80
2022-08-22T00:21:33.095Z,11.80
2022-08-22T00:24:20.183Z,13.10
2022-08-22T00:27:05.899Z,12.80
2022-08-22T00:30:11.506Z,11.90
2022-08-22T00:32:53.521Z,12.50
2022-08-22T00:35:45.478Z,12.50
2022-08-22T00:38:41.375Z,12.00
2022-08-22T00:41:21.683Z,11.80
2022-08-22T00:44:51.375Z,12.40
2022-08-22T00:48:04.190Z,12.10
2022-08-22T00:51:09.677Z,12.90
2022-08-22T00:53:42.019Z,12.30
2022-08-22T00:56:36.257Z,12.40
2022-08-22T00:59:23.704Z,12.80
2022-08-22T01:02:22.016Z,12.60
2022-08-22T01:05:05.211Z,12.50
2022-08-22T01:08:25.329Z,12.40
2022-08-22T01:11:24.644Z,12.10
2022-08-22T01:14:34.794Z,13.50
2022-08-22T01:17:42.078Z,12.50
2022-08-22T01:20:46.423Z,11.50
2022-08-22T01:23:40.523Z,12.40
2022-08-22T01:26:40.511Z,11.90
2022-08-22T01:29:40.054Z,12.50
2022-08-22T01:32:49.258Z,11.90
2022-08-22T01:36:02.436Z,12.50
2022-08-22T01:39:15.324Z,12.30
2022-08-22T01:42:24.780Z,12.40
2022-08-22T01:45:19.002Z,12.20
2022-08-22T01:48:20.566Z,12.30
2022-08-22T01:51:21.356Z,12.50
2022-08-22T01:54:24.468Z,12.70
2022-08-22T01:57:01.655Z,11.90
2022-08-22T01:59:43.392Z,11.80
2022-08-22T02:02:48.148Z,12.40
2022-08-22T02:05:17.359Z,12.30
2022-08-22T02:08:18.233Z,12.20
2022-08-22T02:11:12.082Z,11.70
2022-08-22T02:14:31.851Z,11.00
2022-08-22T02:17:20.876Z,11.20
2022-08-22T02:20:21.053Z,11.40
2022-08-22T02:23:06.934Z,12.50
2022-08-22T02:25:46.746Z,12.60
2022-08-22T02:28:57.168Z,12.20
2022-08-22T02:31:41.882Z,12.10
2022-08-22T02:34:38.555Z,12.00
2022-08-22T02:37:35.039Z,11.40
2022-08-22T02:40:28.325Z,12.10
2022-08-22T02:46:05.780Z,12.00
2022-08-22T02:49:15.220Z,12.00
2022-08-22T02:52:19.341Z,12.60
2022-08-22T02:55:14.122Z,13.00
2022-08-22T02:57:53.409Z,13.00
2022-08-22T03:01:03.423Z,12.90
2022-08-22T03:03:41.463Z,13.70
2022-08-22T03:06:35.066Z,13.00
2022-08-22T03:09:14.341Z,12.60
2022-08-22T03:11:49.740Z,12.10
2022-08-22T03:14:43.674Z,11.90
2022-08-22T03:17:29.310Z,11.70
2022-08-22T03:20:38.849Z,11.90
2022-08-22T03:23:17.849Z,12.10
2022-08-22T03:25:51.884Z,11.90
2022-08-22T03:29:00.931Z,12.10
2022-08-22T03:31:32.427Z,12.70
2022-08-22T03:34:23.124Z,12.50
2022-08-22T03:37:35.939Z,13.40
2022-08-22T03:40:29.735Z,12.10
2022-08-22T03:43:31.552Z,12.10
2022-08-22T03:46:32.019Z,11.50
2022-08-22T03:49:15.946Z,11.00
2022-08-22T03:52:12.029Z,12.80
2022-08-22T03:54:49.540Z,11.10
2022-08-22T03:58:27.559Z,10.60
2022-08-22T04:01:56.769Z,10.60
2022-08-22T04:05:02.868Z,10.80
2022-08-22T04:07:56.044Z,11.80
2022-08-22T04:13:39.189Z,12.80
2022-08-22T04:16:49.710Z,12.30
2022-08-22T04:19:37.332Z,12.20
2022-08-22T04:22:24.110Z,13.00
2022-08-22T04:25:14.480Z,12.40
2022-08-22T04:28:06.879Z,12.90
2022-08-22T04:31:01.786Z,12.00
2022-08-22T04:34:28.959Z,12.80
2022-08-22T04:37:10.871Z,14.20
2022-08-22T04:39:55.793Z,12.60
2022-08-22T04:42:43.036Z,12.40
2022-08-22T04:45:32.373Z,13.30
2022-08-22T04:48:27.190Z,12.20
2022-08-22T04:51:16.901Z,12.50
2022-08-22T04:54:06.967Z,13.00
2022-08-22T04:57:15.586Z,13.30
2022-08-22T04:59:44.792Z,13.80
2022-08-22T05:02:24.255Z,13.50
2022-08-22T05:05:04.338Z,12.80
2022-08-22T05:07:41.516Z,11.50
2022-08-22T05:10:49.052Z,13.00
2022-08-22T05:13:39.786Z,13.50
2022-08-22T05:16:19.582Z,12.70
2022-08-22T05:18:55.769Z,12.90
2022-08-22T05:21:32.547Z,12.60
2022-08-22T05:24:11.549Z,12.00
2022-08-22T05:26:50.821Z,11.80
2022-08-22T05:29:25.424Z,12.80
2022-08-22T05:32:07.893Z,14.90
2022-08-22T05:34:42.192Z,13.60
2022-08-22T05:37:34.553Z,13.60
2022-08-22T05:40:03.989Z,14.90
2022-08-22T05:42:37.741Z,14.10
2022-08-22T05:45:12.126Z,14.80
2022-08-22T05:48:03.439Z,13.70
2022-08-22T05:51:13.863Z,13.50
2022-08-22T05:53:48.619Z,14.00
2022-08-22T05:56:37.769Z,12.70
2022-08-22T05:59:30.587Z,13.40
2022-08-22T06:02:13.162Z,13.90
2022-08-22T06:05:01.230Z,12.60
2022-08-22T06:07:46.837Z,13.40
2022-08-22T06:10:48.126Z,13.60
2022-08-22T06:13:32.402Z,13.60
2022-08-22T06:16:23.197Z,13.70
2022-08-22T06:18:53.164Z,13.20
2022-08-22T06:21:39.251Z,12.60
2022-08-22T06:24:16.912Z,13.60
2022-08-22T06:26:49.132Z,12.50
2022-08-22T06:29:30.478Z,11.20
2022-08-22T06:32:04.242Z,12.00
2022-08-22T06:34:39.533Z,12.10
2022-08-22T06:37:17.153Z,12.50
2022-08-22T06:39:51.193Z,12.50
2022-08-22T06:42:26.124Z,11.30
2022-08-22T06:45:08.372Z,11.60
2022-08-22T06:47:50.125Z,12.10
2022-08-22T06:50:26.284Z,12.00
2022-08-22T06:53:45.938Z,11.00
2022-08-22T06:56:26.786Z,11.60
2022-08-22T06:59:04.255Z,11.50
2022-08-22T07:01:47.022Z,11.80
2022-08-22T07:04:16.670Z,12.00
2022-08-22T07:06:51.058Z,12.30
2022-08-22T07:09:35.188Z,9.90
2022-08-22T07:12:16.811Z,12.00
2022-08-22T07:14:50.513Z,11.50
2022-08-22T07:17:29.244Z,11.00
2022-08-22T07:20:17.561Z,11.10
2022-08-22T07:23:32.002Z,11.60
2022-08-22T07:26:56.656Z,12.20
2022-08-22T07:29:54.734Z,10.40
2022-08-22T07:32:49.686Z,10.60
2022-08-22T07:35:26.364Z,10.60
2022-08-22T07:38:35.188Z,10.00
2022-08-22T07:41:23.754Z,10.50
2022-08-22T07:44:11.141Z,8.80
2022-08-22T07:47:00.934Z,9.60
2022-08-22T07:50:03.945Z,9.50
2022-08-22T07:52:43.073Z,8.80
2022-08-22T07:55:26.716Z,8.30
2022-08-22T07:58:06.061Z,8.30
2022-08-22T08:00:41.414Z,6.90
2022-08-22T08:03:11.867Z,7.80
2022-08-22T08:05:45.194Z,7.40
2022-08-22T08:08:26.608Z,8.00
2022-08-22T08:10:59.170Z,7.40
2022-08-22T08:13:39.903Z,6.60
2022-08-22T08:16:18.128Z,6.60
2022-08-22T08:18:51.458Z,5.80
2022-08-22T08:29:11.354Z,5.80
2022-08-22T08:37:15.487Z,6.80
2022-08-22T08:39:52.025Z,6.50
2022-08-22T08:43:10.642Z,5.40
2022-08-22T08:46:16.770Z,6.30
2022-08-22T08:48:53.893Z,6.40
2022-08-22T08:51:47.629Z,6.10
2022-08-22T08:54:36.231Z,6.80
2022-08-22T08:57:37.332Z,6.60
2022-08-22T09:00:50.645Z,7.10
2022-08-22T11:30:18.740Z,5.40
2022-08-22T11:33:13.640Z,4.60
2022-08-22T11:35:45.305Z,4.40
2022-08-22T11:38:36.272Z,4.70
2022-08-22T11:41:30.020Z,4.00
2022-08-22T11:44:22.414Z,4.50
2022-08-22T11:46:58.098Z,5.20
2022-08-22T11:49:33.099Z,4.80
2022-08-22T11:52:30.928Z,4.20
2022-08-22T11:55:21.911Z,4.40
2022-08-22T11:58:28.672Z,4.10
2022-08-22T12:01:28.080Z,5.00
2022-08-22T12:04:12.744Z,4.80
2022-08-22T12:06:56.729Z,5.00
2022-08-22T12:09:41.467Z,4.60
2022-08-22T12:12:46.581Z,4.90
2022-08-22T12:15:24.606Z,4.50
2022-08-22T12:18:34.023Z,4.60
2022-08-22T12:21:21.469Z,4.30
2022-08-22T12:24:06.021Z,4.10
2022-08-22T12:27:07.766Z,5.00
2022-08-22T12:30:12.909Z,5.10
2022-08-22T12:33:09.901Z,4.70
2022-08-22T12:36:06.406Z,5.10
2022-08-22T12:39:05.765Z,4.60
2022-08-22T12:42:11.328Z,5.30
2022-08-22T12:45:14.318Z,4.60
2022-08-22T12:48:09.106Z,4.80
2022-08-22T12:51:18.964Z,4.70
2022-08-22T12:54:27.251Z,5.00
2022-08-22T12:57:50.476Z,4.60
2022-08-22T13:00:45.440Z,4.70
2022-08-22T13:03:29.661Z,4.30
2022-08-22T13:06:05.118Z,4.00
2022-08-22T13:08:45.801Z,4.40
2022-08-22T13:11:23.321Z,4.50
2022-08-22T13:14:00.643Z,5.70
2022-08-22T13:16:48.948Z,5.10
2022-08-22T13:19:28.017Z,4.10
2022-08-22T13:22:02.487Z,4.70
2022-08-22T13:24:56.939Z,6.10
2022-08-22T13:33:10.325Z,5.00
2022-08-22T13:35:44.700Z,4.60
2022-08-22T13:38:54.171Z,4.20
2022-08-22T13:41:31.203Z,4.60
2022-08-22T13:44:09.417Z,4.20
2022-08-22T13:46:57.952Z,4.30
2022-08-22T13:49:42.419Z,4.70
2022-08-22T13:52:37.921Z,5.00
2022-08-22T13:55:17.910Z,4.20
2022-08-22T13:57:56.883Z,4.40
2022-08-22T14:01:05.990Z,4.50
2022-08-22T14:03:59.604Z,4.60
2022-08-22T14:06:41.484Z,5.00
2022-08-22T14:09:31.385Z,4.80
2022-08-22T14:12:21.265Z,4.20
2022-08-22T14:15:02.508Z,5.70
2022-08-22T14:17:42.868Z,4.90
2022-08-22T14:20:32.410Z,6.10
2022-08-22T14:23:18.213Z,4.90
2022-08-22T14:25:47.949Z,6.30
2022-08-22T14:28:33.592Z,5.40
2022-08-22T14:31:13.696Z,5.10
2022-08-22T14:33:52.060Z,4.70
2022-08-22T14:36:47.619Z,4.70
2022-08-22T14:39:42.778Z,4.50
2022-08-22T14:42:26.644Z,4.10
2022-08-22T14:45:25.146Z,4.90
2022-08-22T14:48:32.609Z,5.40
2022-08-22T14:51:11.018Z,4.20
2022-08-22T14:53:40.748Z,4.30
2022-08-22T14:56:21.886Z,4.60
2022-08-22T14:59:02.739Z,4.90
2022-08-22T15:01:49.774Z,5.20
2022-08-22T15:04:41.206Z,4.70
2022-08-22T15:07:12.837Z,4.70
2022-08-22T15:09:57.752Z,5.10
2022-08-22T15:12:40.632Z,5.20
2022-08-22T15:15:27.338Z,5.00
2022-08-22T15:17:56.576Z,5.20
2022-08-22T15:20:38.186Z,4.50
2022-08-22T15:23:23.767Z,4.30
2022-08-22T15:26:04.200Z,5.30
2022-08-22T15:28:49.762Z,5.20
2022-08-22T15:31:22.933Z,4.20
2022-08-22T15:33:53.279Z,4.90
2022-08-22T15:36:26.677Z,5.20
2022-08-22T15:39:17.091Z,5.60
2022-08-22T15:41:51.130Z,5.00
2022-08-22T15:44:32.255Z,5.60
2022-08-22T15:47:35.014Z,5.00
2022-08-22T15:50:14.688Z,5.40
2022-08-22T15:56:29.582Z,5.20
2022-08-22T15:59:53.623Z,4.60
2022-08-22T16:02:36.869Z,5.20
2022-08-22T16:05:12.167Z,7.20
2022-08-22T16:08:16.289Z,8.50
2022-08-22T16:11:14.682Z,8.10
2022-08-22T16:13:46.495Z,7.60
2022-08-22T16:16:27.577Z,8.00
2022-08-22T16:18:56.122Z,7.80
2022-08-22T16:21:32.904Z,6.90
2022-08-22T16:24:07.860Z,8.70
2022-08-22T16:26:44.578Z,8.60
2022-08-22T16:29:18.149Z,7.80
2022-08-22T16:31:46.925Z,7.90
2022-08-22T16:34:18.545Z,8.20
2022-08-22T16:37:36.831Z,8.40
2022-08-22T16:40:18.761Z,7.70
2022-08-22T16:43:17.612Z,7.60
2022-08-22T16:45:48.773Z,8.10
2022-08-22T16:48:45.791Z,7.30
2022-08-22T16:51:26.067Z,7.80
2022-08-22T16:54:32.625Z,6.80
2022-08-22T16:58:05.972Z,7.90
2022-08-22T17:01:20.789Z,7.30
2022-08-22T17:04:35.386Z,7.70
2022-08-22T17:07:43.687Z,6.10
2022-08-22T17:10:36.348Z,6.70
2022-08-22T17:13:41.274Z,7.50
2022-08-22T17:16:53.886Z,7.80
2022-08-22T17:19:43.800Z,6.70
2022-08-22T17:22:47.611Z,6.20
2022-08-22T17:25:53.715Z,6.50
2022-08-22T17:28:57.546Z,7.30
2022-08-22T17:31:57.531Z,7.40
2022-08-22T17:35:12.205Z,7.30
2022-08-22T17:38:14.161Z,7.10
2022-08-22T17:41:05.215Z,7.50
2022-08-22T17:44:01.785Z,7.50
2022-08-22T17:47:06.695Z,6.90
2022-08-22T17:49:41.437Z,6.80
2022-08-22T17:52:34.086Z,7.30
2022-08-22T17:55:20.068Z,7.20
2022-08-22T17:58:37.670Z,6.50
2022-08-22T18:01:14.886Z,6.50
2022-08-22T18:03:53.737Z,6.70
2022-08-22T18:06:30.230Z,6.90
2022-08-22T18:09:19.322Z,6.30
2022-08-22T18:12:41.349Z,7.00
2022-08-22T18:15:25.952Z,6.80
2022-08-22T18:18:39.439Z,7.20
2022-08-22T18:21:37.502Z,5.80
2022-08-22T18:24:12.626Z,6.30
2022-08-22T18:26:58.644Z,6.80
2022-08-22T18:29:33.003Z,6.40
2022-08-22T18:32:46.044Z,5.70
2022-08-22T18:35:31.719Z,8.80
2022-08-22T18:38:19.589Z,6.70
2022-08-22T18:40:58.031Z,5.60
2022-08-22T18:43:42.182Z,7.20
2022-08-22T18:46:40.619Z,6.20
2022-08-22T18:49:21.125Z,6.30
2022-08-22T18:52:26.630Z,6.00
2022-08-22T18:55:22.772Z,6.50
2022-08-22T18:58:18.727Z,6.50
2022-08-22T19:01:00.481Z,8.30
2022-08-22T19:04:25.544Z,6.90
2022-08-22T19:07:36.466Z,8.50
2022-08-22T19:10:46.715Z,7.10
2022-08-22T19:14:06.432Z,8.70
2022-08-22T19:17:15.588Z,8.50
2022-08-22T19:20:19.813Z,7.70
2022-08-22T19:22:51.116Z,8.20
2022-08-22T19:25:28.144Z,6.00
2022-08-22T19:28:11.871Z,6.40
2022-08-22T19:31:16.111Z,5.90
2022-08-22T19:33:50.688Z,5.60
2022-08-22T19:36:33.722Z,6.50
2022-08-22T19:39:43.848Z,6.80
2022-08-22T19:42:19.085Z,7.30
2022-08-22T19:45:19.388Z,7.20
2022-08-22T19:48:15.150Z,6.70
2022-08-22T19:50:44.423Z,6.20
2022-08-22T19:53:59.103Z,6.10
2022-08-22T19:56:42.552Z,7.40
2022-08-22T20:00:00.319Z,9.50
2022-08-22T20:07:59.709Z,5.80
2022-08-22T20:11:01.566Z,5.80
2022-08-22T20:13:45.863Z,5.30
2022-08-22T20:17:03.118Z,5.70
2022-08-22T20:22:52.764Z,5.90
2022-08-22T20:25:54.327Z,5.90
2022-08-22T20:28:51.014Z,6.70
2022-08-22T20:31:25.679Z,6.20
2022-08-22T20:34:28.862Z,6.30
2022-08-22T20:37:25.399Z,6.60
2022-08-22T20:40:06.350Z,6.90
2022-08-22T20:42:36.958Z,7.10
2022-08-22T20:45:12.301Z,7.50
2022-08-22T20:47:43.556Z,5.60
2022-08-22T20:50:26.111Z,7.00
2022-08-22T20:53:22.688Z,6.90
2022-08-22T20:56:08.272Z,7.80
2022-08-22T20:58:41.186Z,7.40
2022-08-22T21:01:12.445Z,6.70
2022-08-22T21:03:50.953Z,6.90
2022-08-22T21:06:30.522Z,6.20
2022-08-22T21:09:37.549Z,7.10
2022-08-22T21:12:09.890Z,7.40
2022-08-22T21:14:46.321Z,6.40
2022-08-22T21:17:28.093Z,6.50
2022-08-22T21:19:58.287Z,6.50
2022-08-22T21:22:33.340Z,6.80
2022-08-22T21:25:02.175Z,6.60
2022-08-22T21:27:35.259Z,6.40
2022-08-22T21:30:10.167Z,6.30
2022-08-22T21:32:50.061Z,6.60
2022-08-22T21:35:33.617Z,6.10
2022-08-22T21:38:03.221Z,5.70
2022-08-22T21:40:37.273Z,6.40
2022-08-22T21:43:30.114Z,6.30
2022-08-22T21:45:58.829Z,7.10
2022-08-22T21:48:35.622Z,5.70
2022-08-22T21:51:44.642Z,6.60
2022-08-22T21:54:25.424Z,6.40
2022-08-22T21:57:13.956Z,6.20
2022-08-22T21:59:58.960Z,6.00
2022-08-22T22:02:38.027Z,6.10
2022-08-22T22:05:17.824Z,6.90
2022-08-22T22:07:48.140Z,6.70
2022-08-22T22:10:19.884Z,6.20
2022-08-22T22:12:52.271Z,6.30
2022-08-22T22:15:26.106Z,6.50
2022-08-22T22:17:55.972Z,6.70
2022-08-22T22:20:26.485Z,5.70
2022-08-22T22:22:56.345Z,6.50
2022-08-22T22:25:40.947Z,6.10
2022-08-22T22:28:18.971Z,6.90
2022-08-22T22:30:51.718Z,6.80
2022-08-22T22:35:53.363Z,6.80
2022-08-22T22:38:24.413Z,7.10
2022-08-22T22:40:53.617Z,7.20
2022-08-22T22:43:23.403Z,7.30
2022-08-22T22:45:52.146Z,7.90
2022-08-22T22:48:24.537Z,6.70
2022-08-22T22:53:43.077Z,7.00
2022-08-22T22:56:25.410Z,6.70
2022-08-22T22:58:59.240Z,6.70
2022-08-22T23:01:32.858Z,7.00
2022-08-22T23:04:05.708Z,6.80
2022-08-22T23:06:35.114Z,7.10
2022-08-22T23:09:04.253Z,7.20
2022-08-22T23:11:32.887Z,7.40
2022-08-22T23:14:02.971Z,7.20
2022-08-22T23:16:50.288Z,6.50
2022-08-22T23:19:19.383Z,7.70
2022-08-22T23:21:48.105Z,7.50
2022-08-22T23:24:18.205Z,6.90
2022-08-22T23:26:46.973Z,7.30
2022-08-22T23:29:16.084Z,6.70
2022-08-22T23:31:55.101Z,6.90
2022-08-22T23:34:31.046Z,7.70
2022-08-22T23:37:03.169Z,6.50
2022-08-22T23:39:36.066Z,6.40
2022-08-22T23:42:07.677Z,6.60
2022-08-22T23:44:39.078Z,6.60
2022-08-22T23:47:10.220Z,6.80
2022-08-22T23:49:41.157Z,7.40
2022-08-22T23:52:12.638Z,7.50
2022-08-22T23:54:42.060Z,7.70
2022-08-22T23:57:11.864Z,7.00
2022-08-22T23:59:47.963Z,7.20
